Etusivu
METAR-TAF:

METAR-TAF

Lentoasemat :

Bromman lentoasema

Tukholma, Ruotsi

Leveyspiiri: 59-21N, Pituuspiiri: 017-57E, korkeus merenpinnasta: 14 m

Tämänhetkinen sää

Tämä raportti tehtiin 14 minuuttia sitten, kello 13.20 UTC
Tuuli 15 kn lännestä/lounaasta
Lämpötila 12°C
Kosteus 44%
Ilmanpaine 1025 hPa
Näkyvyys 10 km tai enemmän
ei pilviä alle 1500 m:ssä eikä cumulonimbus-pilviä

METAR: ESSB 251320Z 25015KT CAVOK 12/M00 Q1025

Aika: 15:34 (13:34 UTC)

Sääennuste

Tämä raportti tehtiin 2 tuntia ja 4 minuuttia sitten, kello 11.30 UTC
Ennuste voimassa 25. päivästä klo 12 UTC - 25. päivään klo 20 UTC
Tuuli 12 kn lännestä puuskistuen 22 kn:hen
Näkyvyys 10 km tai enemmän
ei pilviä alle 1500 m:ssä eikä cumulonimbus-pilviä

TAF: ESSB 251130Z 2512/2520 27012G22KT CAVOK

Säähavainnot ja -ennusteet yli 4000 lentoasemalta (METAR- ja TAF-raportit).

Käytössä olevat sääasemat on merkitty karttaan keltaisilla ja punaisilla pisteillä.

Aseta hiiri pisteen päälle nähdäksesi sääaseman nimen.

Klikkaa sitten nähdäksesi säähavainnot ja -ennusteet.

Kartan vaihtaminen: klikkaa mustalla rastilla varustettuja vihreitä pisteitä, niin voit zoomata sisään; viivalla varustettua vihreää pistettä, niin voit zoomata ulos tai vihreitä nuolia, niin pääset viereisille kartoille.


METAR-TAF: